createdAt,value
2023-04-11T00:01:51.019Z,72.39
2023-04-11T00:04:21.241Z,72.10
2023-04-11T00:06:50.361Z,72.07
2023-04-11T00:09:20.869Z,72.17
2023-04-11T00:11:49.708Z,72.26
2023-04-11T00:14:18.647Z,72.31
2023-04-11T00:16:49.959Z,72.47
2023-04-11T00:19:21.170Z,72.32
2023-04-11T00:21:50.826Z,71.88
2023-04-11T00:24:19.667Z,72.27
2023-04-11T00:26:48.772Z,72.34
2023-04-11T00:29:19.494Z,72.20
2023-04-11T00:31:52.944Z,72.04
2023-04-11T00:34:22.562Z,71.91
2023-04-11T00:36:51.918Z,72.00
2023-04-11T00:39:22.766Z,71.98
2023-04-11T00:41:51.937Z,71.97
2023-04-11T00:44:22.472Z,72.04
2023-04-11T00:46:51.299Z,72.08
2023-04-11T00:49:20.481Z,71.91
2023-04-11T00:51:50.069Z,71.61
2023-04-11T00:54:20.070Z,71.49
2023-04-11T00:56:51.036Z,71.33
2023-04-11T00:59:20.592Z,71.01
2023-04-11T01:01:51.344Z,71.15
2023-04-11T01:04:22.700Z,71.25
2023-04-11T01:06:56.537Z,71.29
2023-04-11T01:09:27.381Z,71.19
2023-04-11T01:11:58.109Z,71.39
2023-04-11T01:14:27.210Z,71.45
2023-04-11T01:16:56.913Z,71.52
2023-04-11T01:19:27.890Z,71.32
2023-04-11T01:21:58.410Z,71.29
2023-04-11T01:24:27.911Z,71.08
2023-04-11T01:26:59.402Z,71.02
2023-04-11T01:29:28.655Z,71.25
2023-04-11T01:31:58.158Z,71.18
2023-04-11T01:34:28.364Z,71.10
2023-04-11T01:36:57.268Z,71.23
2023-04-11T01:39:26.376Z,70.97
2023-04-11T01:41:57.072Z,70.89
2023-04-11T01:44:27.038Z,71.08
2023-04-11T01:46:58.014Z,71.19
2023-04-11T01:49:27.081Z,71.16
2023-04-11T01:52:15.066Z,71.11
2023-04-11T01:54:46.038Z,71.15
2023-04-11T01:57:16.457Z,71.15
2023-04-11T01:59:46.803Z,70.95
2023-04-11T02:02:17.536Z,70.77
2023-04-11T02:04:47.035Z,70.40
2023-04-11T02:07:16.636Z,70.31
2023-04-11T02:09:46.452Z,70.33
2023-04-11T02:12:16.164Z,70.32
2023-04-11T02:14:46.844Z,70.27
2023-04-11T02:17:18.332Z,70.30
2023-04-11T02:19:48.788Z,70.23
2023-04-11T02:22:17.919Z,70.38
2023-04-11T02:24:50.871Z,70.76
2023-04-11T02:27:20.087Z,71.02
2023-04-11T02:29:50.413Z,71.00
2023-04-11T02:32:19.130Z,70.75
2023-04-11T02:34:47.873Z,70.62
2023-04-11T02:37:19.767Z,70.33
2023-04-11T02:39:48.689Z,70.22
2023-04-11T02:42:20.948Z,70.36
2023-04-11T02:44:56.073Z,70.45
2023-04-11T02:47:27.023Z,70.57
2023-04-11T02:49:59.546Z,70.66
2023-04-11T02:52:32.975Z,70.85
2023-04-11T02:55:02.489Z,70.91
2023-04-11T02:57:33.303Z,70.58
2023-04-11T03:00:02.614Z,70.25
2023-04-11T03:02:35.091Z,69.99
2023-04-11T03:05:09.255Z,69.86
2023-04-11T03:07:40.366Z,69.52
2023-04-11T03:10:13.012Z,69.25
2023-04-11T03:12:42.248Z,69.03
2023-04-11T03:15:13.487Z,68.77
2023-04-11T03:17:44.000Z,68.72
2023-04-11T03:20:17.298Z,68.45
2023-04-11T03:22:47.311Z,68.38
2023-04-11T03:25:19.312Z,68.69
2023-04-11T03:27:49.519Z,68.40
2023-04-11T03:30:22.288Z,68.57
2023-04-11T03:32:53.244Z,68.43
2023-04-11T03:35:22.999Z,68.27
2023-04-11T03:37:53.973Z,68.38
2023-04-11T03:40:23.167Z,68.08
2023-04-11T03:42:56.281Z,67.76
2023-04-11T03:45:27.400Z,67.98
2023-04-11T03:47:57.496Z,67.93
2023-04-11T03:50:28.161Z,67.77
2023-04-11T03:52:59.361Z,67.93
2023-04-11T03:55:30.549Z,67.94
2023-04-11T03:58:00.260Z,67.47
2023-04-11T04:00:29.893Z,67.64
2023-04-11T04:03:02.635Z,67.70
2023-04-11T04:05:32.258Z,67.22
2023-04-11T04:08:03.686Z,67.40
2023-04-11T04:10:46.889Z,67.44
2023-04-11T04:13:16.305Z,67.17
2023-04-11T04:15:55.096Z,67.07
2023-04-11T04:18:26.934Z,66.53
2023-04-11T04:20:56.209Z,66.50
2023-04-11T04:23:28.502Z,66.05
2023-04-11T04:26:07.040Z,66.03
2023-04-11T04:28:40.755Z,65.48
2023-04-11T04:31:10.483Z,65.13
2023-04-11T04:33:42.930Z,65.18
2023-04-11T04:36:17.149Z,65.26
2023-04-11T04:38:48.588Z,65.07
2023-04-11T04:41:20.243Z,64.50
2023-04-11T04:43:54.999Z,64.61
2023-04-11T04:46:28.898Z,63.88
2023-04-11T04:48:59.548Z,63.67
2023-04-11T04:51:29.975Z,62.97
2023-04-11T04:54:02.628Z,62.95
2023-04-11T04:56:32.166Z,62.15
2023-04-11T04:59:01.648Z,60.99
2023-04-11T05:01:32.602Z,60.93
2023-04-11T05:04:02.919Z,60.70
2023-04-11T05:06:41.019Z,60.61
2023-04-11T05:09:11.641Z,60.50
2023-04-11T05:11:41.938Z,59.77
2023-04-11T05:14:12.036Z,59.88
2023-04-11T05:16:43.572Z,60.05
2023-04-11T05:19:13.040Z,60.03
2023-04-11T05:21:44.935Z,60.04
2023-04-11T05:24:16.570Z,60.02
2023-04-11T05:26:47.653Z,60.03
2023-04-11T05:29:18.750Z,60.14
2023-04-11T05:31:49.336Z,59.53
2023-04-11T05:34:18.900Z,59.27
2023-04-11T05:36:51.767Z,59.87
2023-04-11T05:39:21.916Z,59.60
2023-04-11T05:41:53.083Z,58.96
2023-04-11T05:44:23.952Z,59.06
2023-04-11T05:46:56.595Z,58.88
2023-04-11T05:49:25.452Z,58.38
2023-04-11T05:51:55.686Z,58.61
2023-04-11T05:54:37.106Z,58.81
2023-04-11T05:57:07.802Z,58.35
2023-04-11T05:59:37.815Z,58.26
2023-04-11T06:02:07.102Z,58.32
2023-04-11T06:04:36.367Z,58.15
2023-04-11T06:07:07.976Z,58.30
2023-04-11T06:09:37.389Z,58.14
2023-04-11T06:12:07.334Z,57.77
2023-04-11T06:14:37.517Z,57.83
2023-04-11T06:17:07.001Z,57.31
2023-04-11T06:19:37.453Z,57.80
2023-04-11T06:22:07.677Z,57.82
2023-04-11T06:24:40.452Z,57.57
2023-04-11T06:27:10.942Z,56.46
2023-04-11T06:29:43.451Z,56.78
2023-04-11T06:32:12.804Z,56.68
2023-04-11T06:34:45.169Z,56.36
2023-04-11T06:37:14.993Z,56.53
2023-04-11T06:39:43.961Z,55.78
2023-04-11T06:42:13.003Z,55.51
2023-04-11T06:44:46.113Z,55.65
2023-04-11T06:47:16.687Z,55.72
2023-04-11T06:49:46.317Z,55.30
2023-04-11T06:52:16.320Z,55.07
2023-04-11T06:54:45.538Z,55.80
2023-04-11T06:57:14.783Z,56.12
2023-04-11T06:59:45.133Z,54.34
2023-04-11T07:02:15.733Z,53.76
2023-04-11T07:04:45.794Z,52.82
2023-04-11T07:07:16.715Z,52.06
2023-04-11T07:09:47.444Z,51.31
2023-04-11T07:12:16.650Z,50.61
2023-04-11T07:14:47.117Z,49.80
2023-04-11T07:17:17.417Z,49.83
2023-04-11T07:19:46.301Z,48.74
2023-04-11T07:22:16.097Z,49.37
2023-04-11T07:24:46.812Z,48.80
2023-04-11T07:27:17.608Z,47.82
2023-04-11T07:29:47.838Z,47.36
2023-04-11T07:32:16.832Z,47.33
2023-04-11T07:34:45.709Z,47.96
2023-04-11T07:37:14.688Z,47.90
2023-04-11T07:39:44.812Z,47.10
2023-04-11T07:42:14.849Z,47.21
2023-04-11T07:44:43.433Z,47.03
2023-04-11T07:47:14.036Z,46.44
2023-04-11T07:49:43.138Z,46.36
2023-04-11T07:52:14.577Z,45.39
2023-04-11T07:54:44.766Z,44.81
2023-04-11T07:57:22.598Z,44.59
2023-04-11T07:59:56.814Z,42.79
2023-04-11T08:02:25.663Z,42.58
2023-04-11T08:04:54.622Z,41.42
2023-04-11T08:07:25.973Z,40.89
2023-04-11T08:09:55.607Z,39.87
2023-04-11T08:12:25.253Z,39.87
2023-04-11T08:14:55.566Z,39.89
2023-04-11T08:17:28.943Z,38.60
2023-04-11T08:19:58.032Z,39.24
2023-04-11T08:22:27.703Z,38.68
2023-04-11T08:24:57.556Z,38.68
2023-04-11T08:27:26.869Z,38.17
2023-04-11T08:29:58.848Z,38.56
2023-04-11T08:32:28.165Z,39.25
2023-04-11T08:34:57.870Z,39.96
2023-04-11T08:37:28.232Z,40.89
2023-04-11T08:39:58.289Z,40.68
2023-04-11T08:42:29.397Z,40.58
2023-04-11T08:45:04.788Z,41.41
2023-04-11T08:47:34.754Z,41.27
2023-04-11T08:50:05.630Z,40.88
2023-04-11T08:52:35.214Z,41.28
2023-04-11T08:55:04.394Z,41.07
2023-04-11T08:57:33.510Z,40.57
2023-04-11T09:00:09.374Z,40.64
2023-04-11T09:03:00.863Z,40.59
2023-04-11T09:05:38.332Z,41.50
2023-04-11T09:08:13.473Z,41.27
2023-04-11T09:10:47.964Z,41.55
2023-04-11T09:13:22.221Z,40.85
2023-04-11T09:16:08.839Z,41.33
2023-04-11T09:18:39.792Z,42.16
2023-04-11T09:21:13.119Z,42.30
2023-04-11T09:23:44.245Z,42.25
2023-04-11T09:26:15.754Z,42.65
2023-04-11T09:28:48.770Z,42.95
2023-04-11T09:31:18.584Z,43.63
2023-04-11T09:33:54.670Z,43.90
2023-04-11T09:36:24.945Z,43.37
2023-04-11T09:38:54.810Z,43.82
2023-04-11T09:41:34.453Z,43.97
2023-04-11T09:44:03.483Z,43.67
2023-04-11T09:46:33.709Z,43.99
2023-04-11T09:49:03.351Z,44.14
2023-04-11T09:51:37.041Z,43.74
2023-04-11T09:54:06.246Z,44.23
2023-04-11T09:56:35.917Z,44.26
2023-04-11T09:59:06.629Z,44.32
2023-04-11T10:01:35.887Z,44.29
2023-04-11T10:04:05.006Z,44.12
2023-04-11T10:06:44.763Z,44.64
2023-04-11T10:09:14.221Z,44.34
2023-04-11T10:11:44.495Z,44.50
2023-04-11T10:14:41.525Z,44.25
2023-04-11T10:17:22.821Z,44.52
2023-04-11T10:19:58.981Z,44.81
2023-04-11T10:22:59.473Z,45.29
2023-04-11T10:25:30.456Z,45.28
2023-04-11T10:28:01.428Z,45.17
2023-04-11T10:30:46.801Z,45.34
2023-04-11T10:33:17.717Z,45.09
2023-04-11T10:36:03.289Z,45.69
2023-04-11T10:38:45.799Z,45.68
2023-04-11T10:41:26.305Z,45.32
2023-04-11T10:44:18.176Z,45.39
2023-04-11T10:46:53.784Z,45.27
2023-04-11T10:49:38.560Z,45.76
2023-04-11T10:52:24.135Z,45.38
2023-04-11T10:54:53.942Z,45.93
2023-04-11T10:57:25.102Z,46.43
2023-04-11T10:59:58.486Z,45.92
2023-04-11T11:02:31.376Z,46.02
2023-04-11T11:05:00.724Z,46.01
2023-04-11T11:07:30.483Z,45.87
2023-04-11T11:10:04.442Z,45.85
2023-04-11T11:12:35.436Z,44.17
2023-04-11T11:15:15.189Z,44.12
2023-04-11T11:17:45.750Z,44.23
2023-04-11T11:20:21.505Z,44.62
2023-04-11T11:23:03.498Z,44.54
2023-04-11T11:25:33.767Z,44.92
2023-04-11T11:28:07.715Z,44.44
2023-04-11T11:30:38.061Z,44.64
2023-04-11T11:33:19.572Z,45.22
2023-04-11T11:36:00.471Z,44.41
2023-04-11T11:38:31.125Z,44.79
2023-04-11T11:41:00.836Z,45.24
2023-04-11T11:43:30.471Z,44.82
2023-04-11T11:46:13.785Z,44.94
2023-04-11T11:48:43.618Z,44.91
2023-04-11T11:51:12.511Z,43.99
2023-04-11T11:53:43.124Z,44.43
2023-04-11T11:56:14.226Z,44.32
2023-04-11T11:58:44.908Z,44.19
2023-04-11T12:01:15.583Z,44.53
2023-04-11T12:03:45.556Z,44.64
2023-04-11T12:06:16.493Z,44.59
2023-04-11T12:08:47.587Z,44.28
2023-04-11T12:11:19.258Z,44.65
2023-04-11T12:13:52.247Z,44.46
2023-04-11T12:16:23.634Z,44.28
2023-04-11T12:18:53.992Z,44.22
2023-04-11T12:21:22.697Z,44.10
2023-04-11T12:23:52.050Z,43.78
2023-04-11T12:26:22.507Z,43.32
2023-04-11T12:28:52.456Z,43.28
2023-04-11T12:31:25.293Z,42.50
2023-04-11T12:33:55.720Z,42.70
2023-04-11T12:36:24.724Z,41.63
2023-04-11T12:38:55.132Z,42.08
2023-04-11T12:43:56.644Z,42.83
2023-04-11T12:46:26.813Z,42.85
2023-04-11T12:48:56.297Z,43.11
2023-04-11T12:51:25.461Z,43.11
2023-04-11T12:53:56.446Z,43.22
2023-04-11T12:56:27.012Z,43.13
2023-04-11T12:58:57.904Z,42.63
2023-04-11T13:01:27.670Z,42.78
2023-04-11T13:03:58.066Z,43.21
2023-04-11T13:06:28.237Z,43.52
2023-04-11T13:08:59.643Z,43.24
2023-04-11T13:11:28.969Z,43.70
2023-04-11T13:14:00.570Z,44.15
2023-04-11T13:16:34.635Z,43.46
2023-04-11T13:19:06.007Z,43.28
2023-04-11T13:21:43.702Z,43.49
2023-04-11T13:24:14.656Z,43.40
2023-04-11T13:26:48.981Z,43.07
2023-04-11T13:29:18.383Z,42.95
2023-04-11T13:31:53.225Z,42.70
2023-04-11T13:34:24.250Z,42.48
2023-04-11T13:36:56.073Z,42.91
2023-04-11T13:39:28.285Z,42.89
2023-04-11T13:42:02.985Z,42.01
2023-04-11T13:44:48.487Z,42.21
2023-04-11T13:47:40.755Z,42.06
2023-04-11T13:50:14.966Z,42.06
2023-04-11T13:52:51.072Z,41.69
2023-04-11T13:55:25.648Z,42.00
2023-04-11T13:58:00.965Z,42.18
2023-04-11T14:00:37.314Z,41.76
2023-04-11T14:03:09.327Z,42.00
2023-04-11T14:05:47.833Z,41.38
2023-04-11T14:08:19.371Z,42.14
2023-04-11T14:11:10.134Z,41.87
2023-04-11T14:13:46.873Z,41.73
2023-04-11T14:16:24.142Z,41.65
2023-04-11T14:18:55.683Z,41.72
2023-04-11T14:21:31.905Z,41.13
2023-04-11T14:24:02.082Z,41.47
2023-04-11T14:26:36.285Z,41.49
2023-04-11T14:29:12.404Z,41.34
2023-04-11T14:31:47.656Z,40.90
2023-04-11T14:34:20.653Z,41.18
2023-04-11T14:36:57.377Z,41.90
2023-04-11T14:39:28.621Z,41.59
2023-04-11T14:42:01.415Z,41.17
2023-04-11T14:44:35.376Z,41.20
2023-04-11T14:47:07.995Z,41.59
2023-04-11T14:49:39.121Z,41.42
2023-04-11T14:52:12.516Z,41.45
2023-04-11T14:54:46.033Z,41.16
2023-04-11T14:57:16.649Z,41.33
2023-04-11T14:59:49.942Z,41.73
2023-04-11T15:02:25.350Z,42.13
2023-04-11T15:04:56.456Z,42.26
2023-04-11T15:07:28.741Z,41.76
2023-04-11T15:09:59.922Z,42.27
2023-04-11T15:12:32.226Z,42.26
2023-04-11T15:15:08.726Z,42.17
2023-04-11T15:17:50.133Z,41.77
2023-04-11T15:20:27.827Z,41.56
2023-04-11T15:23:01.629Z,42.14
2023-04-11T15:25:33.958Z,42.12
2023-04-11T15:28:11.062Z,42.17
2023-04-11T15:30:50.787Z,42.67
2023-04-11T15:33:24.540Z,42.48
2023-04-11T15:46:59.269Z,42.42
2023-04-11T16:01:21.587Z,43.79
2023-04-11T16:04:50.660Z,44.23
2023-04-11T16:08:52.004Z,44.32
2023-04-11T16:15:58.598Z,43.53
2023-04-11T16:19:05.336Z,43.68
2023-04-11T16:22:29.448Z,43.79
2023-04-11T16:26:30.166Z,44.14
2023-04-11T16:32:59.694Z,44.56
2023-04-11T16:36:23.147Z,44.25
2023-04-11T16:46:54.454Z,44.27
2023-04-11T16:50:17.861Z,44.58
2023-04-11T16:53:23.851Z,44.53
2023-04-11T16:56:11.992Z,44.36
2023-04-11T16:58:59.716Z,44.24
2023-04-11T17:01:47.705Z,44.50
2023-04-11T17:11:43.377Z,44.42
2023-04-11T17:14:13.759Z,44.52
2023-04-11T17:22:40.021Z,44.43
2023-04-11T17:25:26.117Z,44.34
2023-04-11T17:29:08.787Z,45.14
2023-04-11T17:32:14.775Z,44.34
2023-04-11T17:38:45.476Z,44.70
2023-04-11T17:45:17.792Z,44.99
2023-04-11T17:52:43.270Z,45.77
2023-04-11T17:55:49.702Z,45.93
2023-04-11T18:02:38.993Z,45.83
2023-04-11T18:06:22.813Z,46.04
2023-04-11T18:09:10.762Z,46.02
2023-04-11T18:11:57.769Z,45.94
2023-04-11T18:19:06.155Z,46.93
2023-04-11T18:25:54.029Z,47.37
2023-04-11T18:28:22.744Z,46.74
2023-04-11T18:31:47.279Z,46.88
2023-04-11T18:38:36.753Z,47.24
2023-04-11T18:45:25.776Z,47.06
2023-04-11T18:52:35.050Z,47.21
2023-04-11T18:55:42.089Z,46.62
2023-04-11T18:58:49.791Z,46.46
2023-04-11T19:01:56.981Z,46.41
2023-04-11T19:09:04.184Z,47.09
2023-04-11T19:11:51.352Z,46.95
2023-04-11T19:18:37.182Z,47.26
2023-04-11T19:22:19.374Z,46.96
2023-04-11T19:25:43.592Z,47.23
2023-04-11T19:33:08.229Z,47.47
2023-04-11T19:36:52.116Z,47.44
2023-04-11T19:40:18.718Z,47.55
2023-04-11T19:43:24.455Z,47.45
2023-04-11T19:46:48.373Z,48.12
2023-04-11T19:50:12.710Z,47.72
2023-04-11T19:53:17.405Z,47.84
2023-04-11T19:56:59.697Z,48.41
2023-04-11T20:03:40.397Z,48.27
2023-04-11T20:07:04.975Z,48.46
2023-04-11T20:10:28.838Z,48.84
2023-04-11T20:13:52.688Z,47.64
2023-04-11T20:17:16.044Z,47.50
2023-04-11T20:20:58.786Z,47.25
2023-04-11T20:24:40.957Z,47.08
2023-04-11T20:27:28.573Z,47.20
2023-04-11T20:30:33.803Z,47.25
2023-04-11T20:40:46.697Z,47.16
2023-04-11T20:44:28.443Z,46.98
2023-04-11T20:58:23.179Z,47.21
2023-04-11T21:01:11.784Z,47.48
2023-04-11T21:04:19.040Z,46.88
2023-04-11T21:06:50.347Z,47.34
2023-04-11T21:13:22.410Z,47.24
2023-04-11T21:16:11.284Z,47.50
2023-04-11T21:23:35.590Z,49.07
2023-04-11T21:32:56.248Z,53.11
2023-04-11T21:36:21.855Z,54.29
2023-04-11T21:39:48.774Z,54.63
2023-04-11T21:46:37.529Z,55.37
2023-04-11T21:53:25.019Z,56.64
2023-04-11T21:57:07.803Z,56.35
2023-04-11T22:00:52.442Z,56.15
2023-04-11T22:07:24.832Z,57.60
2023-04-11T22:13:17.987Z,59.63
2023-04-11T22:17:01.061Z,61.00
2023-04-11T22:23:17.221Z,62.25
2023-04-11T22:27:36.452Z,62.61
2023-04-11T22:30:44.477Z,62.53
2023-04-11T22:36:56.546Z,64.25
2023-04-11T22:47:31.077Z,64.97
2023-04-11T22:51:12.626Z,64.37
2023-04-11T22:54:56.098Z,64.18
2023-04-11T22:58:02.309Z,64.64
2023-04-11T23:00:50.964Z,64.34
2023-04-11T23:10:28.547Z,66.21
2023-04-11T23:16:24.289Z,65.97
2023-04-11T23:23:30.137Z,67.26
2023-04-11T23:26:20.368Z,67.29
2023-04-11T23:29:44.192Z,67.01
2023-04-11T23:32:53.229Z,67.49
2023-04-11T23:47:23.772Z,68.02
2023-04-11T23:50:11.972Z,68.01
2023-04-11T23:53:35.035Z,68.21
